EKSB/SGD METAR and TAF weather

Enter ICAO airport designator
Station Type Date Time Source
EKSB METAR 2021/08/05 03:20 UTC NOAA

EKSB 050320Z AUTO 06005KT 9999 OVC039/// 17/14 Q1013


Station Type Date Time Source
EKSB Decoded METAR 2021/08/05 03:20 UTC NOAA

Soenderborg Lufthavn, Denmark (EKSB) 54-58N 009-47E 14M
Aug 04, 2021 - 11:20 PM EDT / 2021.08.05 0320 UTC
Wind: from the ENE (060 degrees) at 6 MPH (5 KT):0
Visibility: greater than 7 mile(s):0
Sky conditions: overcast
Temperature: 62 F (17 C)
Dew Point: 57 F (14 C)
Relative Humidity: 82%
Pressure (altimeter): 29.91 in. Hg (1013 hPa)
ob: EKSB 050320Z AUTO 06005KT 9999 OVC039/// 17/14 Q1013
cycle: 3

Station Type Date Time Source
EKSB TAF 2016/01/27 09:03 UTC NOAA

TAF TAF EKSB 270856Z 2709/2721 23022KT 5000 -RA BR BKN008
TEMPO 2709/2721 24025G40KT 2000 RADZ BKN004

Example: see airport list